• Join FlightAware (Why Join?)
  • Login
  • US Flag 
12:14PM EDT


 

Airport Tracker/Info


-or-


 

Live Flight TrackerFlight Track Log ✈ N949SC ✈ 28-Jun-2013 ✈ KJKA - KLFT

Flight Track Log - Related Links

Times and Time Zones

All times are in EDT time to prevent confusion due to time zone crossing. See the N949SC flight status page for this flight to view local times or setup timezone preferences in your user account.

Time Position Orientation Groundspeed Altitude Reporting Facility
EDT Latitude Longitude Course Direction KTS MPH feet Rate Location/Type
02:33PM 30.2633 -87.8247 259° West 178 205 4,400  Level Houston Center
02:39PM 30.2700 -88.2140 259° West 208 239 5,600 480 Climbing FlightAware
02:41PM 30.3060 -88.3180 292° West 209 241 8,100 1,200 Climbing FlightAware
02:42PM 30.3060 -88.3480 270° West 215 247 8,400 900 Climbing FlightAware
02:42PM 30.3060 -88.3630 270° West 217 250 8,700 900 Climbing FlightAware
02:42PM 30.3060 -88.3980 270° West 220 253 9,100 900 Climbing FlightAware
02:43PM 30.3050 -88.4310 268° West 222 255 9,600 1,080 Climbing FlightAware
02:43PM 30.3050 -88.4510 270° West 223 257 9,900 1,020 Climbing FlightAware
02:44PM 30.3040 -88.5010 269° West 229 264 10,600 960 Climbing FlightAware
02:47PM 30.3000 -88.7680 269° West 246 283 14,000 960 Climbing FlightAware
02:48PM 30.2990 -88.8210 269° West 247 284 14,700 960 Climbing FlightAware
02:49PM 30.2980 -88.8780 269° West 249 287 15,400 840 Climbing FlightAware
02:49PM 30.2970 -88.9330 269° West 255 293 15,900 360 Climbing FlightAware
02:50PM 30.2950 -89.0260 269° West 267 307 16,100 60 Climbing FlightAware
02:51PM 30.2930 -89.1140 269° West 269 310 16,100  Level FlightAware
02:52PM 30.2920 -89.1780 269° West 270 311 16,100  Level FlightAware
02:53PM 30.2910 -89.2350 269° West 272 313 16,100  Level FlightAware
02:53PM 30.2900 -89.2970 269° West 272 313 16,100  Level FlightAware
02:54PM 30.2880 -89.3590 268° West 271 312 16,100  Level FlightAware
02:55PM 30.2860 -89.4520 269° West 271 312 16,100  Level FlightAware
02:56PM 30.2850 -89.5220 269° West 272 313 16,100  Level FlightAware
02:57PM 30.2830 -89.6020 268° West 273 314 16,100 -120 Level FlightAware
02:58PM 30.2810 -89.6650 268° West 273 314 16,000 -120 Descending FlightAware
02:58PM 30.2800 -89.7200 269° West 273 314 16,000  Level FlightAware
02:59PM 30.2780 -89.7890 268° West 274 315 16,000  Level FlightAware
03:00PM 30.2750 -89.9010 268° West 275 316 16,100  Climbing FlightAware
03:01PM 30.2740 -89.9460 269° West 275 316 16,100 -120 Level FlightAware
03:02PM 30.2720 -90.0200 268° West 275 316 16,000 -120 Descending FlightAware
03:03PM 30.2710 -90.0830 269° West 275 316 16,000  Level FlightAware
03:03PM 30.2690 -90.1540 268° West 276 318 16,000  Level FlightAware
03:04PM 30.2670 -90.2110 268° West 276 318 16,000  Level FlightAware
03:05PM 30.2660 -90.2650 269° West 275 316 16,000  Level FlightAware
03:06PM 30.2620 -90.3710 268° West 274 315 16,000  Level FlightAware
03:07PM 30.2610 -90.4320 269° West 274 315 16,000  Level FlightAware
03:08PM 30.2580 -90.5070 267° West 274 315 16,000  Level FlightAware
03:08PM 30.2570 -90.5520 269° West 274 315 16,000  Level FlightAware
03:09PM 30.2550 -90.6090 268° West 274 315 16,000  Level FlightAware
03:10PM 30.2514 -90.7186 268° West 276 318 16,000  Level Houston Center
03:11PM 30.2492 -90.8061 268° West 275 316 16,000 -180 Level Houston Center
03:12PM 30.2467 -90.8947 268° West 276 318 15,700 -600 Descending Houston Center
03:13PM 30.2411 -90.9842 266° West 281 323 14,800 -960 Descending Houston Center
03:14PM 30.2392 -91.0769 269° West 289 333 13,800 -960 Descending Houston Center
03:15PM 30.2361 -91.1703 268° West 291 335 12,800 -1,140 Descending Houston Center
03:16PM 30.2369 -91.2825 271° West 293 337 11,500 -900 Descending Houston Center
03:17PM 30.2497 -91.3708 280° West 281 323 11,000 -300 Descending Houston Center
03:18PM 30.2481 -91.4544 269° West 264 304 10,900 -780 Descending Houston Center
03:19PM 30.2392 -91.5358 263° West 257 296 9,400 -1,500 Descending Houston Center
03:20PM 30.2339 -91.6175 266° West 255 293 7,800 -1,800 Descending Houston Center
03:21PM 30.2333 -91.7128 270° West 249 287 5,800 -1,680 Descending Houston Center
03:22PM 30.2458 -91.7850 281° West 227 261 4,400 -1,380 Descending Houston Center
03:24PM 30.2250 -91.8885 270° West  Level Estimated
03:31PM 30.2000 -91.9833 270° West  Level FlightAware Approximate
03:32PM 30.2050 -91.9877 270° West  Level Estimated